createdAt,value
2018-01-14T00:00:00.590Z,0.30
2018-01-14T00:02:28.202Z,0.50
2018-01-14T00:04:55.722Z,0.60
2018-01-14T00:07:24.780Z,0.80
2018-01-14T00:09:52.232Z,0.80
2018-01-14T00:12:19.697Z,1.00
2018-01-14T00:14:47.199Z,1.00
2018-01-14T00:17:14.678Z,0.80
2018-01-14T00:19:42.178Z,0.50
2018-01-14T00:22:09.731Z,0.60
2018-01-14T00:24:37.198Z,0.50
2018-01-14T00:27:04.694Z,0.30
2018-01-14T00:29:32.255Z,0.40
2018-01-14T00:31:59.869Z,0.60
2018-01-14T00:34:27.351Z,0.40
2018-01-14T00:36:54.849Z,0.40
2018-01-14T00:39:22.301Z,0.40
2018-01-14T00:41:50.647Z,0.30
2018-01-14T00:44:18.160Z,0.30
2018-01-14T00:46:46.404Z,0.20
2018-01-14T00:49:13.929Z,0.20
2018-01-14T00:51:41.465Z,0.20
2018-01-14T00:54:09.700Z,0.20
2018-01-14T00:56:37.201Z,0.20
2018-01-14T00:59:04.779Z,0.50
2018-01-14T01:01:33.085Z,0.10
2018-01-14T01:04:00.557Z,0.10
2018-01-14T01:06:28.069Z,0.00
2018-01-14T01:08:55.525Z,0.00
2018-01-14T01:11:22.997Z,-0.10
2018-01-14T01:13:50.492Z,0.00
2018-01-14T01:16:17.997Z,0.10
2018-01-14T01:18:45.489Z,-0.10
2018-01-14T01:21:13.220Z,-0.20
2018-01-14T01:23:40.802Z,-0.10
2018-01-14T01:26:08.342Z,-0.10
2018-01-14T01:28:36.416Z,-0.10
2018-01-14T01:31:03.902Z,-0.20
2018-01-14T01:33:31.440Z,-0.20
2018-01-14T01:35:58.909Z,-0.20
2018-01-14T01:38:26.423Z,-0.20
2018-01-14T01:40:54.776Z,-0.20
2018-01-14T01:43:23.635Z,-0.20
2018-01-14T01:45:51.142Z,-0.10
2018-01-14T01:48:18.649Z,-0.30
2018-01-14T01:50:46.291Z,-0.30
2018-01-14T01:53:14.615Z,-0.30
2018-01-14T01:55:42.148Z,-0.30
2018-01-14T01:58:10.448Z,-0.40
2018-01-14T02:00:37.957Z,-0.40
2018-01-14T02:03:05.453Z,-0.40
2018-01-14T02:05:33.748Z,-0.30
2018-01-14T02:08:01.286Z,-0.30
2018-01-14T02:10:29.575Z,-0.20
2018-01-14T02:12:57.856Z,0.10
2018-01-14T02:15:26.187Z,0.40
2018-01-14T02:17:53.733Z,0.40
2018-01-14T02:20:21.219Z,0.40
2018-01-14T02:22:48.764Z,0.10
2018-01-14T02:25:16.256Z,0.10
2018-01-14T02:27:43.784Z,0.10
2018-01-14T02:30:11.252Z,0.20
2018-01-14T02:32:38.818Z,0.10
2018-01-14T02:35:06.365Z,0.00
2018-01-14T02:37:34.031Z,-0.20
2018-01-14T02:40:02.413Z,-0.40
2018-01-14T02:42:30.716Z,-0.40
2018-01-14T02:44:58.197Z,-0.40
2018-01-14T02:47:25.798Z,-0.30
2018-01-14T02:49:53.302Z,-0.20
2018-01-14T02:52:20.800Z,-0.20
2018-01-14T02:54:49.093Z,-0.30
2018-01-14T02:57:16.561Z,-0.40
2018-01-14T02:59:44.120Z,-0.20
2018-01-14T03:02:11.689Z,-0.30
2018-01-14T03:04:39.304Z,-0.20
2018-01-14T03:07:06.833Z,-0.30
2018-01-14T03:09:34.328Z,-0.30
2018-01-14T03:12:01.806Z,-0.30
2018-01-14T03:14:29.324Z,-0.40
2018-01-14T03:16:56.867Z,-0.30
2018-01-14T03:19:25.345Z,-0.20
2018-01-14T03:21:53.642Z,-0.50
2018-01-14T03:24:21.935Z,-0.50
2018-01-14T03:26:49.462Z,-0.60
2018-01-14T03:29:16.984Z,-0.40
2018-01-14T03:31:44.471Z,-0.40
2018-01-14T03:34:12.053Z,-0.50
2018-01-14T03:36:39.560Z,-0.70
2018-01-14T03:39:07.120Z,-0.60
2018-01-14T03:41:34.588Z,-0.70
2018-01-14T03:44:02.079Z,-0.50
2018-01-14T03:46:29.608Z,-0.50
2018-01-14T03:48:57.203Z,-0.70
2018-01-14T03:51:24.693Z,-0.70
2018-01-14T03:53:52.234Z,-0.80
2018-01-14T03:56:19.711Z,-0.50
2018-01-14T03:58:47.188Z,-0.10
2018-01-14T04:01:14.692Z,-0.30
2018-01-14T04:03:42.187Z,-0.50
2018-01-14T04:06:09.831Z,-0.40
2018-01-14T04:08:37.381Z,-0.60
2018-01-14T04:11:05.644Z,-0.50
2018-01-14T04:13:33.885Z,-0.50
2018-01-14T04:16:01.372Z,-0.50
2018-01-14T04:18:28.867Z,-0.40
2018-01-14T04:20:56.341Z,-0.70
2018-01-14T04:23:23.817Z,-0.80
2018-01-14T04:25:51.517Z,-1.00
2018-01-14T04:28:19.106Z,-1.00
2018-01-14T04:30:47.400Z,-0.90
2018-01-14T04:33:15.649Z,-1.00
2018-01-14T04:35:43.155Z,-1.00
2018-01-14T04:38:10.704Z,-1.00
2018-01-14T04:40:38.260Z,-1.10
2018-01-14T04:43:06.569Z,-1.10
2018-01-14T04:45:34.108Z,-1.10
2018-01-14T04:48:02.379Z,-1.00
2018-01-14T04:50:29.889Z,-1.00
2018-01-14T04:52:57.437Z,-1.00
2018-01-14T04:55:24.930Z,-1.10
2018-01-14T04:57:52.430Z,-1.10
2018-01-14T05:00:19.972Z,-0.80
2018-01-14T05:02:47.533Z,-0.80
2018-01-14T05:05:15.195Z,-0.90
2018-01-14T05:07:42.716Z,-1.20
2018-01-14T05:10:10.226Z,-1.00
2018-01-14T05:12:37.714Z,-1.20
2018-01-14T05:15:05.189Z,-1.00
2018-01-14T05:17:33.467Z,-1.00
2018-01-14T05:20:01.785Z,-1.00
2018-01-14T05:22:29.309Z,-1.00
2018-01-14T05:24:56.770Z,-1.00
2018-01-14T05:27:24.330Z,-1.20
2018-01-14T05:29:51.796Z,-1.20
2018-01-14T05:32:19.362Z,-1.00
2018-01-14T05:34:47.112Z,-1.20
2018-01-14T05:37:14.611Z,-0.80
2018-01-14T05:39:42.986Z,-0.90
2018-01-14T05:42:11.325Z,-1.00
2018-01-14T05:44:40.227Z,-1.00
2018-01-14T05:47:09.069Z,-1.00
2018-01-14T05:49:37.474Z,-1.00
2018-01-14T05:52:05.064Z,-1.10
2018-01-14T05:54:32.684Z,-1.20
2018-01-14T05:57:00.995Z,-0.80
2018-01-14T05:59:28.739Z,-0.90
2018-01-14T06:01:57.044Z,-0.80
2018-01-14T06:04:24.643Z,-0.80
2018-01-14T06:06:52.560Z,-0.90
2018-01-14T06:09:20.959Z,-1.10
2018-01-14T06:11:48.719Z,-1.10
2018-01-14T06:14:16.206Z,-1.10
2018-01-14T06:16:43.702Z,-1.00
2018-01-14T06:19:11.459Z,-0.70
2018-01-14T06:21:45.570Z,-1.00
2018-01-14T06:24:13.295Z,-1.10
2018-01-14T06:26:41.109Z,-1.10
2018-01-14T06:29:09.099Z,-1.30
2018-01-14T06:31:36.904Z,-1.40
2018-01-14T06:34:05.149Z,-1.50
2018-01-14T06:36:34.004Z,-1.50
2018-01-14T06:39:04.190Z,-1.40
2018-01-14T06:41:33.756Z,-1.50
2018-01-14T06:44:04.598Z,-1.50
2018-01-14T06:46:33.708Z,-1.50
2018-01-14T06:49:02.569Z,-1.40
2018-01-14T06:51:30.359Z,-1.60
2018-01-14T06:53:57.902Z,-1.50
2018-01-14T06:56:29.684Z,-1.50
2018-01-14T06:58:58.857Z,-1.50
2018-01-14T07:01:26.349Z,-1.70
2018-01-14T07:03:54.849Z,-1.60
2018-01-14T07:06:23.321Z,-1.60
2018-01-14T07:08:51.975Z,-1.60
2018-01-14T07:11:20.294Z,-1.60
2018-01-14T07:13:49.157Z,-1.60
2018-01-14T07:16:18.493Z,-1.70
2018-01-14T07:18:46.195Z,-1.70
2018-01-14T07:21:13.768Z,-1.70
2018-01-14T07:23:42.693Z,-1.80
2018-01-14T07:26:10.862Z,-1.80
2018-01-14T07:28:38.415Z,-1.80
2018-01-14T07:31:06.192Z,-2.00
2018-01-14T07:33:35.537Z,-2.10
2018-01-14T07:36:03.154Z,-2.10
2018-01-14T07:38:32.344Z,-2.10
2018-01-14T07:41:01.484Z,-2.10
2018-01-14T07:43:29.098Z,-2.10
2018-01-14T07:45:57.681Z,-2.00
2018-01-14T07:48:25.407Z,-2.30
2018-01-14T07:50:53.041Z,-2.10
2018-01-14T07:53:21.387Z,-2.10
2018-01-14T07:55:48.887Z,-2.10
2018-01-14T07:58:17.197Z,-2.00
2018-01-14T08:00:44.691Z,-2.10
2018-01-14T08:03:12.355Z,-2.00
2018-01-14T08:05:39.840Z,-1.80
2018-01-14T08:08:07.502Z,-1.90
2018-01-14T08:10:35.046Z,-1.70
2018-01-14T08:13:02.632Z,-1.80
2018-01-14T08:15:30.138Z,-1.80
2018-01-14T08:17:57.663Z,-1.80
2018-01-14T08:20:25.207Z,-1.60
2018-01-14T08:22:52.837Z,-1.30
2018-01-14T08:25:20.404Z,-1.20
2018-01-14T08:27:47.905Z,-1.30
2018-01-14T08:30:15.395Z,-1.50
2018-01-14T08:32:42.991Z,-1.70
2018-01-14T08:35:12.232Z,-1.80
2018-01-14T08:37:39.722Z,-1.80
2018-01-14T08:40:07.324Z,-1.60
2018-01-14T08:42:34.917Z,-1.40
2018-01-14T08:45:02.598Z,-1.50
2018-01-14T08:47:30.122Z,-1.30
2018-01-14T08:49:57.624Z,-1.40
2018-01-14T08:52:25.100Z,-1.20
2018-01-14T08:54:52.580Z,-1.00
2018-01-14T08:57:20.864Z,-1.10
2018-01-14T08:59:49.184Z,-1.30
2018-01-14T09:02:16.672Z,-1.30
2018-01-14T09:04:44.216Z,-1.20
2018-01-14T09:07:11.862Z,-1.00
2018-01-14T09:09:40.118Z,-0.60
2018-01-14T09:12:08.389Z,-0.70
2018-01-14T09:14:36.674Z,-0.60
2018-01-14T09:17:04.340Z,-0.60
2018-01-14T09:19:32.730Z,-0.40
2018-01-14T09:22:01.021Z,-0.40
2018-01-14T09:24:29.268Z,-0.30
2018-01-14T09:26:56.770Z,-0.40
2018-01-14T09:29:25.052Z,-0.20
2018-01-14T09:31:53.330Z,-0.20
2018-01-14T09:34:21.580Z,-0.10
2018-01-14T09:36:49.114Z,-0.10
2018-01-14T09:39:16.637Z,-0.10
2018-01-14T09:41:44.880Z,0.00
2018-01-14T09:44:12.385Z,0.00
2018-01-14T09:46:40.779Z,0.10
2018-01-14T09:49:08.236Z,0.10
2018-01-14T09:51:35.760Z,0.10
2018-01-14T09:54:05.288Z,0.20
2018-01-14T09:56:33.595Z,0.20
2018-01-14T09:59:01.134Z,0.20
2018-01-14T10:01:29.978Z,0.40
2018-01-14T10:03:57.437Z,0.30
2018-01-14T10:06:25.028Z,0.30
2018-01-14T10:08:52.522Z,0.40
2018-01-14T10:11:21.200Z,0.50
2018-01-14T10:13:48.696Z,0.50
2018-01-14T10:16:16.224Z,0.20
2018-01-14T10:18:43.818Z,0.20
2018-01-14T10:21:11.623Z,0.40
2018-01-14T10:23:40.186Z,0.50
2018-01-14T10:26:08.812Z,0.60
2018-01-14T10:28:36.376Z,0.50
2018-01-14T10:31:03.921Z,0.40
2018-01-14T10:33:31.559Z,0.50
2018-01-14T10:35:59.053Z,0.60
2018-01-14T10:38:26.609Z,0.70
2018-01-14T10:40:54.125Z,0.70
2018-01-14T10:43:22.490Z,0.90
2018-01-14T10:45:50.099Z,0.90
2018-01-14T10:48:18.354Z,0.80
2018-01-14T10:50:45.931Z,0.80
2018-01-14T10:53:13.403Z,0.80
2018-01-14T10:55:41.636Z,0.80
2018-01-14T10:58:09.228Z,0.80
2018-01-14T11:00:42.439Z,0.70
2018-01-14T11:03:10.716Z,0.70
2018-01-14T11:05:39.103Z,0.90
2018-01-14T11:08:07.391Z,1.10
2018-01-14T11:10:35.801Z,1.00
2018-01-14T11:13:03.302Z,1.00
2018-01-14T11:15:30.841Z,1.10
2018-01-14T11:17:59.301Z,1.20
2018-01-14T11:20:26.884Z,1.20
2018-01-14T11:22:54.445Z,1.20
2018-01-14T11:25:22.140Z,1.20
2018-01-14T11:27:49.762Z,1.30
2018-01-14T11:30:17.531Z,1.30
2018-01-14T11:32:45.349Z,1.50
2018-01-14T11:35:12.942Z,1.40
2018-01-14T11:37:40.548Z,1.40
2018-01-14T11:40:08.070Z,1.40
2018-01-14T11:42:36.360Z,1.50
2018-01-14T11:45:04.939Z,1.60
2018-01-14T11:47:33.220Z,1.60
2018-01-14T11:50:01.487Z,1.60
2018-01-14T11:52:29.044Z,1.60
2018-01-14T11:54:56.536Z,1.70
2018-01-14T11:57:25.019Z,1.90
2018-01-14T11:59:53.364Z,1.90
2018-01-14T12:02:21.007Z,1.80
2018-01-14T12:04:48.558Z,1.80
2018-01-14T12:07:16.075Z,1.80
2018-01-14T12:09:44.470Z,1.90
2018-01-14T12:12:12.890Z,1.80
2018-01-14T12:14:41.164Z,1.80
2018-01-14T12:17:09.017Z,1.90
2018-01-14T12:19:37.493Z,2.00
2018-01-14T12:22:05.023Z,2.00
2018-01-14T12:24:32.696Z,2.10
2018-01-14T12:27:00.212Z,2.10
2018-01-14T12:29:27.745Z,2.20
2018-01-14T12:31:55.345Z,2.20
2018-01-14T12:34:37.727Z,2.30
2018-01-14T12:37:06.017Z,2.20
2018-01-14T12:39:34.295Z,2.20
2018-01-14T12:42:01.977Z,2.20
2018-01-14T12:44:30.672Z,2.20
2018-01-14T12:46:58.176Z,2.30
2018-01-14T12:49:25.694Z,2.30
2018-01-14T12:51:53.412Z,2.40
2018-01-14T12:54:20.936Z,2.40
2018-01-14T12:56:48.606Z,2.40
2018-01-14T12:59:16.892Z,2.40
2018-01-14T13:01:46.237Z,2.40
2018-01-14T13:04:13.852Z,2.50
2018-01-14T13:06:41.538Z,2.40
2018-01-14T13:09:09.114Z,2.40
2018-01-14T13:11:36.672Z,2.50
2018-01-14T13:14:04.317Z,2.60
2018-01-14T13:16:31.926Z,2.70
2018-01-14T13:19:00.942Z,2.70
2018-01-14T13:21:28.585Z,2.70
2018-01-14T13:23:56.139Z,2.70
2018-01-14T13:26:23.758Z,2.70
2018-01-14T13:28:52.018Z,2.90
2018-01-14T13:31:19.634Z,2.80
2018-01-14T13:33:47.151Z,2.90
2018-01-14T13:36:14.662Z,2.80
2018-01-14T13:38:42.175Z,2.90
2018-01-14T13:41:10.631Z,2.90
2018-01-14T13:43:38.432Z,2.90
2018-01-14T13:46:06.016Z,2.90
2018-01-14T13:48:34.336Z,3.20
2018-01-14T13:51:02.937Z,3.20
2018-01-14T13:53:30.443Z,3.30
2018-01-14T13:55:58.038Z,3.20
2018-01-14T13:58:25.746Z,3.30
2018-01-14T14:00:53.265Z,3.40
2018-01-14T14:03:20.787Z,3.50
2018-01-14T14:05:48.289Z,3.40
2018-01-14T14:08:16.016Z,3.30
2018-01-14T14:10:43.824Z,3.20
2018-01-14T14:13:11.547Z,3.30
2018-01-14T14:15:39.116Z,3.30
2018-01-14T14:18:06.661Z,3.40
2018-01-14T14:20:34.246Z,3.40
2018-01-14T14:23:01.778Z,3.40
2018-01-14T14:25:29.324Z,3.50
2018-01-14T14:27:56.895Z,3.50
2018-01-14T14:30:24.454Z,3.50
2018-01-14T14:32:52.117Z,3.60
2018-01-14T14:35:19.685Z,3.70
2018-01-14T14:37:47.169Z,3.60
2018-01-14T14:40:15.532Z,3.60
2018-01-14T14:42:43.086Z,3.60
2018-01-14T14:45:10.716Z,3.50
2018-01-14T14:47:38.177Z,3.50
2018-01-14T14:50:06.560Z,3.40
2018-01-14T14:52:34.106Z,3.40
2018-01-14T14:55:01.661Z,3.30
2018-01-14T14:57:29.254Z,3.40
2018-01-14T14:59:56.737Z,3.30
2018-01-14T15:02:24.976Z,3.40
2018-01-14T15:04:52.482Z,3.40
2018-01-14T15:07:20.774Z,3.30
2018-01-14T15:09:48.262Z,3.30
2018-01-14T15:12:15.746Z,3.20
2018-01-14T15:14:43.264Z,3.20
2018-01-14T15:17:10.817Z,3.30
2018-01-14T15:19:39.171Z,3.20
2018-01-14T15:22:06.644Z,3.20
2018-01-14T15:24:34.158Z,3.20
2018-01-14T15:27:01.675Z,3.20
2018-01-14T15:29:29.297Z,3.20
2018-01-14T15:31:56.947Z,3.20
2018-01-14T15:34:24.480Z,3.10
2018-01-14T15:36:52.177Z,3.10
2018-01-14T15:39:19.887Z,3.10
2018-01-14T15:41:47.650Z,3.10
2018-01-14T15:44:15.441Z,2.90
2018-01-14T15:46:43.190Z,2.80
2018-01-14T15:49:10.842Z,3.00
2018-01-14T15:51:38.453Z,3.00
2018-01-14T15:54:06.725Z,2.90
2018-01-14T15:56:34.215Z,2.90
2018-01-14T15:59:02.027Z,2.80
2018-01-14T16:01:29.614Z,2.90
2018-01-14T16:03:57.105Z,2.80
2018-01-14T16:06:24.630Z,2.70
2018-01-14T16:08:52.218Z,2.70
2018-01-14T16:11:20.928Z,2.70
2018-01-14T16:13:49.308Z,2.60
2018-01-14T16:16:17.580Z,2.60
2018-01-14T16:18:45.867Z,2.50
2018-01-14T16:21:13.338Z,2.40
2018-01-14T16:23:41.596Z,2.30
2018-01-14T16:26:09.809Z,2.40
2018-01-14T16:28:37.348Z,2.40
2018-01-14T16:31:05.853Z,2.40
2018-01-14T16:33:34.099Z,2.40
2018-01-14T16:36:01.557Z,2.40
2018-01-14T16:38:29.920Z,2.30
2018-01-14T16:40:57.456Z,2.30
2018-01-14T16:43:25.028Z,2.20
2018-01-14T16:45:52.773Z,2.20
2018-01-14T16:48:20.289Z,2.10
2018-01-14T16:50:47.806Z,2.10
2018-01-14T16:53:16.058Z,2.00
2018-01-14T16:55:43.671Z,2.00
2018-01-14T16:58:11.185Z,1.90
2018-01-14T17:00:38.779Z,1.90
2018-01-14T17:03:07.078Z,1.90
2018-01-14T17:05:34.584Z,1.90
2018-01-14T17:08:02.087Z,2.00
2018-01-14T17:10:29.679Z,2.10
2018-01-14T17:12:57.205Z,2.10
2018-01-14T17:15:24.888Z,2.20
2018-01-14T17:17:52.453Z,2.20
2018-01-14T17:20:20.830Z,2.10
2018-01-14T17:22:48.557Z,2.00
2018-01-14T17:25:16.224Z,2.00
2018-01-14T17:27:43.762Z,2.10
2018-01-14T17:30:11.328Z,2.10
2018-01-14T17:32:39.034Z,2.10
2018-01-14T17:35:06.592Z,1.90
2018-01-14T17:37:34.330Z,1.80
2018-01-14T17:40:01.841Z,1.70
2018-01-14T17:42:29.341Z,1.70
2018-01-14T17:44:57.107Z,1.70
2018-01-14T17:47:24.642Z,1.70
2018-01-14T17:49:53.251Z,1.90
2018-01-14T17:52:20.832Z,1.90
2018-01-14T17:54:48.555Z,2.10
2018-01-14T17:57:17.346Z,2.10
2018-01-14T17:59:45.161Z,2.10
2018-01-14T18:02:12.660Z,2.10
2018-01-14T18:04:40.207Z,2.00
2018-01-14T18:07:07.967Z,2.00
2018-01-14T18:09:35.429Z,2.00
2018-01-14T18:12:02.946Z,2.00
2018-01-14T18:14:31.290Z,1.90
2018-01-14T18:17:00.017Z,1.90
2018-01-14T18:19:28.404Z,1.90
2018-01-14T18:21:56.945Z,1.90
2018-01-14T18:24:24.716Z,1.90
2018-01-14T18:26:52.304Z,1.90
2018-01-14T18:29:20.185Z,1.90
2018-01-14T18:31:48.830Z,1.90
2018-01-14T18:34:16.681Z,1.90
2018-01-14T18:36:44.454Z,1.90
2018-01-14T18:39:12.254Z,1.80
2018-01-14T18:41:39.907Z,1.80
2018-01-14T18:44:07.465Z,1.80
2018-01-14T18:46:35.076Z,1.70
2018-01-14T18:49:02.613Z,1.70
2018-01-14T18:51:32.487Z,1.60
2018-01-14T18:54:00.966Z,1.60
2018-01-14T18:56:29.422Z,1.60
2018-01-14T18:58:57.138Z,1.60
2018-01-14T19:01:24.720Z,1.60
2018-01-14T19:03:52.245Z,1.50
2018-01-14T19:06:19.922Z,1.50
2018-01-14T19:08:49.213Z,1.50
2018-01-14T19:11:17.649Z,1.50
2018-01-14T19:13:45.235Z,1.50
2018-01-14T19:16:12.751Z,1.50
2018-01-14T19:18:40.994Z,1.40
2018-01-14T19:21:08.488Z,1.40
2018-01-14T19:23:36.015Z,1.40
2018-01-14T19:26:03.573Z,1.30
2018-01-14T19:28:31.041Z,1.10
2018-01-14T19:30:58.643Z,1.10
2018-01-14T19:33:26.173Z,1.20
2018-01-14T19:35:53.820Z,1.40
2018-01-14T19:38:21.523Z,1.40
2018-01-14T19:40:49.871Z,1.20
2018-01-14T19:43:17.419Z,1.20
2018-01-14T19:45:45.051Z,1.10
2018-01-14T19:48:12.640Z,1.10
2018-01-14T19:50:40.200Z,1.10
2018-01-14T19:53:07.811Z,0.90
2018-01-14T19:55:35.534Z,0.70
2018-01-14T19:58:03.266Z,0.70
2018-01-14T20:00:30.803Z,0.70
2018-01-14T20:02:58.551Z,0.70
2018-01-14T20:05:26.135Z,0.60
2018-01-14T20:07:55.112Z,0.90
2018-01-14T20:10:22.793Z,1.10
2018-01-14T20:12:50.514Z,1.30
2018-01-14T20:15:18.905Z,1.20
2018-01-14T20:17:47.143Z,1.30
2018-01-14T20:20:15.448Z,1.20
2018-01-14T20:22:43.246Z,1.20
2018-01-14T20:25:10.898Z,1.30
2018-01-14T20:27:39.418Z,1.30
2018-01-14T20:30:07.138Z,1.30
2018-01-14T20:32:34.698Z,1.10
2018-01-14T20:35:03.038Z,0.80
2018-01-14T20:37:32.604Z,0.80
2018-01-14T20:40:01.074Z,0.90
2018-01-14T20:42:30.177Z,0.70
2018-01-14T20:44:57.818Z,0.70
2018-01-14T20:47:25.490Z,0.60
2018-01-14T20:49:53.161Z,0.60
2018-01-14T20:52:20.718Z,0.60
2018-01-14T20:54:48.320Z,0.60
2018-01-14T20:57:16.721Z,0.90
2018-01-14T20:59:44.406Z,0.90
2018-01-14T21:02:12.092Z,1.00
2018-01-14T21:04:39.630Z,1.00
2018-01-14T21:07:07.125Z,1.00
2018-01-14T21:09:34.688Z,1.00
2018-01-14T21:12:02.195Z,1.10
2018-01-14T21:14:30.538Z,1.00
2018-01-14T21:16:58.104Z,1.00
2018-01-14T21:19:25.722Z,1.00
2018-01-14T21:21:53.296Z,0.90
2018-01-14T21:24:20.907Z,0.80
2018-01-14T21:26:48.429Z,0.70
2018-01-14T21:29:15.989Z,0.60
2018-01-14T21:31:43.609Z,0.80
2018-01-14T21:34:11.230Z,0.90
2018-01-14T21:36:38.851Z,1.00
2018-01-14T21:39:07.129Z,1.10
2018-01-14T21:41:34.738Z,0.90
2018-01-14T21:44:02.493Z,0.90
2018-01-14T21:46:29.948Z,1.00
2018-01-14T21:48:57.518Z,1.00
2018-01-14T21:51:25.872Z,0.90
2018-01-14T21:53:54.205Z,1.00
2018-01-14T21:56:21.810Z,1.00
2018-01-14T21:58:49.416Z,1.10
2018-01-14T22:01:16.989Z,1.20
2018-01-14T22:03:44.687Z,1.10
2018-01-14T22:06:12.168Z,1.20
2018-01-14T22:08:39.705Z,1.10
2018-01-14T22:11:07.225Z,1.10
2018-01-14T22:13:35.723Z,0.90
2018-01-14T22:16:04.102Z,0.80
2018-01-14T22:18:31.648Z,0.80
2018-01-14T22:20:59.175Z,0.90
2018-01-14T22:23:26.839Z,0.90
2018-01-14T22:25:54.453Z,0.90
2018-01-14T22:28:22.678Z,0.80
2018-01-14T22:30:50.331Z,0.80
2018-01-14T22:33:17.900Z,0.80
2018-01-14T22:35:45.560Z,0.90
2018-01-14T22:38:13.125Z,1.00
2018-01-14T22:40:42.065Z,1.10
2018-01-14T22:43:09.614Z,1.10
2018-01-14T22:45:37.165Z,1.10
2018-01-14T22:48:04.999Z,1.10
2018-01-14T22:50:33.468Z,1.00
2018-01-14T22:53:01.049Z,1.00
2018-01-14T22:55:29.356Z,0.90
2018-01-14T22:57:56.824Z,0.90
2018-01-14T23:00:25.735Z,1.00
2018-01-14T23:02:53.641Z,1.00
2018-01-14T23:05:21.451Z,1.00
2018-01-14T23:07:49.837Z,1.00
2018-01-14T23:10:19.377Z,1.10
2018-01-14T23:12:46.886Z,1.10
2018-01-14T23:15:14.409Z,1.10
2018-01-14T23:17:41.907Z,1.10
2018-01-14T23:20:10.404Z,1.10
2018-01-14T23:22:38.726Z,1.00
2018-01-14T23:25:06.241Z,1.00
2018-01-14T23:27:33.735Z,1.00
2018-01-14T23:30:02.012Z,0.70
2018-01-14T23:32:30.365Z,0.70
2018-01-14T23:34:57.876Z,0.70
2018-01-14T23:37:25.368Z,0.90
2018-01-14T23:39:52.924Z,0.90
2018-01-14T23:42:20.481Z,1.00
2018-01-14T23:44:48.039Z,1.00
2018-01-14T23:47:15.554Z,1.10
2018-01-14T23:49:43.060Z,1.10
2018-01-14T23:52:10.710Z,1.00
2018-01-14T23:54:39.025Z,0.70
2018-01-14T23:57:06.655Z,0.70
2018-01-14T23:59:34.873Z,0.70
